Ashland, North Carolina
Current Conditions -  °F | °C
As of 7:35 PM on Sunday 21 Dec 2014 (Local Time) from KGEV Reporting Station
Haze Haze  
Wind Chill: 36°   Ceiling: 700
Heat Index: 36°   Visibility: 4mi
Dew Point: 33°   Wind: 0mph
Humidity: 91%   Direction: NA
Pressure: 30.14"   Gusts: NA
Location:  36.4481°N, 81.6486°W
Report Text: KGEV 220035Z AUTO 00000KT 4SM BR OVC007 02/01 A3014 RMK AO2 T00200006
Loading
Personal Weather Stations






























Interactive Weather Map New forecast layout! Learn more

10-Day Weather Forecast

Advertisements
Track Severe Weather on mobile